Time;durP1;ratioP1;P1;durP2;ratioP2;P2;SDS_P1;SDS_P2;PMS_P1;PMS_P2;Temp;Humidity;BMP_temperature;BMP_pressure;BME280_temperature;BME280_humidity;BME280_pressure;Samples;Min_cycle;Max_cycle;Signal;HPM_P1;HPM_P2
2023/04/03 00:01:26;;;;;;;3.07;2.13;;;1.20;99.90;;;;;;5036048;28;20176;-81
2023/04/03 00:03:51;;;;;;;5.33;2.40;;;1.20;99.90;;;;;;5035057;28;20172;-81
2023/04/03 00:06:17;;;;;;;4.23;2.47;;;1.20;99.90;;;;;;5039989;28;20176;-81
2023/04/03 00:08:43;;;;;;;3.63;2.50;;;1.20;99.90;;;;;;5042214;28;20184;-80
2023/04/03 00:11:10;;;;;;;3.50;2.43;;;1.10;99.90;;;;;;5040009;28;20199;-81
2023/04/03 00:13:35;;;;;;;3.27;2.60;;;1.10;99.90;;;;;;5038882;28;20211;-81
2023/04/03 00:16:03;;;;;;;6.07;2.63;;;1.10;99.90;;;;;;5040896;28;20251;-81
2023/04/03 00:18:29;;;;;;;6.00;3.00;;;1.10;99.90;;;;;;5040785;28;20282;-80
2023/04/03 00:20:54;;;;;;;3.47;2.60;;;1.10;99.90;;;;;;5041053;28;20171;-80
2023/04/03 00:23:20;;;;;;;3.33;2.77;;;1.10;99.90;;;;;;5040603;28;20188;-80
2023/04/03 00:25:45;;;;;;;5.20;2.87;;;1.00;99.90;;;;;;5039410;28;20635;-80
2023/04/03 00:28:11;;;;;;;4.63;3.13;;;1.00;99.90;;;;;;5038758;28;20195;-80
2023/04/03 00:30:37;;;;;;;5.30;3.33;;;1.00;99.90;;;;;;5041343;28;20677;-80
2023/04/03 00:33:02;;;;;;;4.00;3.17;;;1.00;99.90;;;;;;5039418;28;20192;-80
2023/04/03 00:35:29;;;;;;;4.80;3.03;;;1.00;99.90;;;;;;5040507;28;20725;-80
2023/04/03 00:37:55;;;;;;;5.47;3.47;;;1.00;99.90;;;;;;5040752;28;20179;-80
2023/04/03 00:40:23;;;;;;;4.87;3.17;;;1.00;99.90;;;;;;5040777;28;20192;-80
2023/04/03 00:42:52;;;;;;;8.50;2.90;;;0.90;99.90;;;;;;5039587;28;20189;-80
2023/04/03 00:45:49;;;;;;;4.80;2.97;;;1.00;99.90;;;;;;5040548;28;20726;-80
2023/04/03 00:48:19;;;;;;;5.20;3.20;;;0.90;99.90;;;;;;5036218;28;20660;-80
2023/04/03 00:50:45;;;;;;;6.43;3.37;;;0.90;99.90;;;;;;5040626;28;20169;-80
2023/04/03 00:53:17;;;;;;;5.07;3.57;;;0.90;99.90;;;;;;5039754;28;20760;-80
2023/04/03 00:55:43;;;;;;;4.97;3.17;;;0.90;99.90;;;;;;5039511;28;20222;-80
2023/04/03 00:58:10;;;;;;;5.63;3.13;;;0.90;99.90;;;;;;5040918;28;20196;-80
2023/04/03 01:00:38;;;;;;;3.87;2.90;;;0.80;99.90;;;;;;5040894;28;20206;-80
2023/04/03 01:03:04;;;;;;;3.17;2.87;;;0.80;99.90;;;;;;5040891;28;20616;-80
2023/04/03 01:05:30;;;;;;;4.83;3.30;;;0.80;99.90;;;;;;5039972;28;20172;-80
2023/04/03 01:07:57;;;;;;;4.47;3.40;;;0.80;99.90;;;;;;5041347;28;20242;-80
2023/04/03 01:10:25;;;;;;;5.33;3.37;;;0.80;99.90;;;;;;5040891;28;20253;-80
2023/04/03 01:12:52;;;;;;;4.13;3.17;;;0.80;99.90;;;;;;5041171;28;20196;-80
2023/04/03 01:15:22;;;;;;;6.80;3.30;;;0.80;99.90;;;;;;5042206;28;20187;-80
2023/04/03 01:17:51;;;;;;;6.37;3.10;;;0.80;99.90;;;;;;5041806;28;20153;-80
2023/04/03 01:20:32;;;;;;;4.40;2.93;;;0.80;99.90;;;;;;5043017;28;20196;-80
2023/04/03 01:23:09;;;;;;;4.67;3.10;;;0.70;99.90;;;;;;5042210;28;20192;-80
2023/04/03 01:25:41;;;;;;;5.60;3.63;;;0.70;99.90;;;;;;5048835;28;20218;-80
2023/04/03 01:28:18;;;;;;;5.10;3.83;;;0.70;99.90;;;;;;5041525;28;20160;-80
2023/04/03 01:30:58;;;;;;;5.03;3.40;;;0.70;99.90;;;;;;5039844;28;20570;-80
2023/04/03 01:33:23;;;;;;;6.63;3.90;;;0.70;99.90;;;;;;5040443;28;20200;-80
2023/04/03 01:35:49;;;;;;;11.50;3.80;;;0.70;99.90;;;;;;5039050;28;20543;-80
2023/04/03 01:38:14;;;;;;;6.80;3.93;;;0.70;99.90;;;;;;5038448;28;20526;-80
2023/04/03 01:40:40;;;;;;;6.63;3.83;;;0.60;99.90;;;;;;5039051;28;20698;-80
2023/04/03 01:43:05;;;;;;;5.03;3.53;;;0.60;99.90;;;;;;5040683;28;20218;-80
2023/04/03 01:45:31;;;;;;;6.90;3.87;;;0.60;99.90;;;;;;5039290;28;20195;-79
2023/04/03 01:47:56;;;;;;;7.27;3.90;;;0.60;99.90;;;;;;5040773;28;20495;-80
2023/04/03 01:50:22;;;;;;;4.30;3.30;;;0.60;99.90;;;;;;5039030;28;20184;-79
2023/04/03 01:52:47;;;;;;;7.10;3.50;;;0.60;99.90;;;;;;5039643;28;20196;-79
2023/04/03 01:55:13;;;;;;;7.30;3.80;;;0.60;99.90;;;;;;5041782;28;20314;-80
2023/04/03 01:57:39;;;;;;;3.40;3.10;;;0.60;99.90;;;;;;5041276;28;20180;-80
2023/04/03 02:00:05;;;;;;;4.70;3.60;;;0.60;99.90;;;;;;5039494;28;20200;-80
2023/04/03 02:02:30;;;;;;;5.47;3.60;;;0.60;99.90;;;;;;5041256;28;20206;-79
2023/04/03 02:04:56;;;;;;;4.50;3.63;;;0.60;99.90;;;;;;5040019;28;20247;-80
2023/04/03 02:07:22;;;;;;;6.40;3.83;;;0.60;99.90;;;;;;5042255;28;20578;-78
2023/04/03 02:09:47;;;;;;;10.03;4.47;;;0.50;99.90;;;;;;5042771;28;20266;-79
2023/04/03 02:12:13;;;;;;;7.27;4.40;;;0.50;99.90;;;;;;5042704;28;20222;-79
2023/04/03 02:14:38;;;;;;;7.33;4.17;;;0.50;99.90;;;;;;5048094;28;20176;-79
2023/04/03 02:17:08;;;;;;;5.57;3.47;;;0.50;99.90;;;;;;5044703;28;20184;-80
2023/04/03 02:19:34;;;;;;;5.17;3.83;;;0.40;99.90;;;;;;5039307;28;20737;-79
2023/04/03 02:22:00;;;;;;;6.87;4.67;;;0.40;99.90;;;;;;5041475;28;20192;-80
2023/04/03 02:24:25;;;;;;;5.53;4.43;;;0.40;99.90;;;;;;5041035;28;20174;-79
2023/04/03 02:26:51;;;;;;;5.57;4.17;;;0.40;99.90;;;;;;5038651;28;20182;-80
2023/04/03 02:29:16;;;;;;;5.10;4.40;;;0.40;99.90;;;;;;5039348;28;20172;-79
2023/04/03 02:31:42;;;;;;;6.13;4.70;;;0.50;99.90;;;;;;5040094;28;20199;-80
2023/04/03 02:34:07;;;;;;;9.00;4.63;;;0.50;99.90;;;;;;5039612;28;20176;-80
2023/04/03 02:36:33;;;;;;;5.77;4.50;;;0.50;99.90;;;;;;5040468;28;20247;-79
2023/04/03 02:38:58;;;;;;;7.23;4.50;;;0.60;99.90;;;;;;5040716;28;20196;-80
2023/04/03 02:41:27;;;;;;;7.17;4.63;;;0.60;99.90;;;;;;5038637;28;20677;-79
2023/04/03 02:43:53;;;;;;;6.67;3.87;;;0.60;99.90;;;;;;5040211;28;20171;-80
2023/04/03 02:46:18;;;;;;;6.13;4.80;;;0.60;99.90;;;;;;5040681;28;20251;-79
2023/04/03 02:48:44;;;;;;;8.80;4.57;;;0.70;99.90;;;;;;5040378;28;20719;-80
2023/04/03 02:51:09;;;;;;;8.97;4.43;;;0.70;99.90;;;;;;5038559;28;20563;-80
2023/04/03 02:53:35;;;;;;;8.37;4.77;;;0.70;99.90;;;;;;5039344;28;20228;-79
2023/04/03 02:56:00;;;;;;;7.90;4.20;;;0.70;99.90;;;;;;5038723;28;20180;-80
2023/04/03 02:58:26;;;;;;;7.37;4.03;;;0.70;99.90;;;;;;5040125;28;20184;-78
2023/04/03 03:00:51;;;;;;;6.33;4.37;;;0.80;99.90;;;;;;5040111;28;20281;-79
2023/04/03 03:03:17;;;;;;;7.33;3.77;;;0.70;99.90;;;;;;5038135;28;20200;-80
2023/04/03 03:05:42;;;;;;;4.73;3.67;;;0.70;99.90;;;;;;5038818;28;20174;-80
2023/04/03 03:08:08;;;;;;;8.53;4.70;;;0.80;99.90;;;;;;5039224;28;20545;-80
2023/04/03 03:10:34;;;;;;;4.97;3.30;;;0.80;99.90;;;;;;5037458;28;20687;-79
2023/04/03 03:13:00;;;;;;;5.47;4.10;;;0.80;99.90;;;;;;5038406;28;20279;-79
2023/04/03 03:15:26;;;;;;;9.40;3.60;;;0.80;99.90;;;;;;5039654;28;20164;-81
2023/04/03 03:17:51;;;;;;;5.23;3.57;;;0.80;99.90;;;;;;5041346;28;20184;-79
2023/04/03 03:20:17;;;;;;;7.10;4.70;;;0.80;99.90;;;;;;5040017;28;20204;-79
2023/04/03 03:22:43;;;;;;;6.27;4.07;;;0.80;99.90;;;;;;5039644;28;20291;-80
2023/04/03 03:25:09;;;;;;;5.77;4.30;;;0.80;99.90;;;;;;5039180;28;20560;-79
2023/04/03 03:27:34;;;;;;;7.17;3.53;;;0.70;99.90;;;;;;5037398;28;20496;-80
2023/04/03 03:30:00;;;;;;;10.13;4.40;;;0.70;99.90;;;;;;5037779;28;20183;-79
2023/04/03 03:32:25;;;;;;;7.27;4.37;;;0.70;99.90;;;;;;5039306;28;20196;-79
2023/04/03 03:34:51;;;;;;;5.03;4.00;;;0.60;99.90;;;;;;5039676;28;20528;-79
2023/04/03 03:37:16;;;;;;;8.97;4.60;;;0.60;99.90;;;;;;5037149;28;20675;-79
2023/04/03 03:39:42;;;;;;;7.80;3.87;;;0.60;99.90;;;;;;5038366;28;20236;-79
2023/04/03 03:42:08;;;;;;;5.23;4.23;;;0.70;99.90;;;;;;5038308;28;20195;-80
2023/04/03 03:44:33;;;;;;;10.63;4.03;;;0.70;99.90;;;;;;5036904;28;20176;-80
2023/04/03 03:46:59;;;;;;;4.77;3.40;;;0.60;99.90;;;;;;5038457;28;20168;-80
2023/04/03 03:49:25;;;;;;;9.80;4.20;;;0.60;99.90;;;;;;5037464;28;20179;-79
2023/04/03 03:51:51;;;;;;;4.93;3.40;;;0.60;99.90;;;;;;5037964;28;20199;-79
2023/04/03 03:54:17;;;;;;;4.10;3.13;;;0.60;99.90;;;;;;5040173;28;20655;-80
2023/04/03 03:56:42;;;;;;;7.90;3.50;;;0.70;99.90;;;;;;5037819;28;20176;-79
2023/04/03 03:59:08;;;;;;;5.93;3.80;;;0.70;99.90;;;;;;5038839;28;20196;-80
2023/04/03 04:01:34;;;;;;;6.30;4.10;;;0.70;99.90;;;;;;5038371;28;20176;-79
2023/04/03 04:03:59;;;;;;;9.90;3.30;;;0.70;99.90;;;;;;5037838;28;20283;-79
2023/04/03 04:06:25;;;;;;;5.13;3.17;;;0.70;99.90;;;;;;5040043;28;20763;-79
2023/04/03 04:08:51;;;;;;;5.53;3.17;;;0.70;99.90;;;;;;5038107;28;20176;-79
2023/04/03 04:11:16;;;;;;;5.30;2.83;;;0.70;99.90;;;;;;5039600;28;20575;-79
2023/04/03 04:13:42;;;;;;;5.57;2.77;;;0.70;99.90;;;;;;5040120;28;20269;-79
2023/04/03 04:16:08;;;;;;;4.67;3.00;;;0.70;99.90;;;;;;5039487;28;20255;-79
2023/04/03 04:18:34;;;;;;;8.17;2.80;;;0.70;99.90;;;;;;5038560;28;20601;-79
2023/04/03 04:21:00;;;;;;;4.50;2.77;;;0.80;99.90;;;;;;5038052;28;20276;-80
2023/04/03 04:23:25;;;;;;;8.30;3.00;;;0.70;99.90;;;;;;5039999;28;20189;-79
2023/04/03 04:25:51;;;;;;;4.40;2.93;;;0.70;99.90;;;;;;5039710;28;20206;-78
2023/04/03 04:28:17;;;;;;;6.27;3.07;;;0.70;99.90;;;;;;5040818;28;20176;-79
2023/04/03 04:30:43;;;;;;;9.20;2.83;;;0.80;99.90;;;;;;5041135;28;20187;-79
2023/04/03 04:33:09;;;;;;;6.90;2.60;;;0.80;99.90;;;;;;5039998;28;20204;-79
2023/04/03 04:35:35;;;;;;;7.33;2.77;;;0.80;99.90;;;;;;5038283;28;20184;-79
2023/04/03 04:38:01;;;;;;;3.67;2.47;;;0.80;99.90;;;;;;5039151;28;20188;-79
2023/04/03 04:40:27;;;;;;;5.57;2.60;;;0.80;99.90;;;;;;5037184;28;20239;-79
2023/04/03 04:42:52;;;;;;;5.33;2.57;;;0.80;99.90;;;;;;5037124;28;20196;-79
2023/04/03 04:45:18;;;;;;;5.47;2.40;;;0.80;99.90;;;;;;5038683;28;20176;-80
2023/04/03 04:47:44;;;;;;;5.20;2.43;;;0.80;99.90;;;;;;5040361;28;20173;-80
2023/04/03 04:50:10;;;;;;;8.83;2.80;;;0.80;99.90;;;;;;5040312;28;20188;-80
2023/04/03 04:52:36;;;;;;;5.67;2.40;;;0.70;99.90;;;;;;5040747;28;20212;-79
2023/04/03 04:55:01;;;;;;;6.50;3.00;;;0.70;99.90;;;;;;5041416;28;20321;-79
2023/04/03 04:57:27;;;;;;;4.10;2.13;;;0.80;99.90;;;;;;5041804;28;20188;-79
2023/04/03 04:59:52;;;;;;;6.37;2.70;;;0.70;99.90;;;;;;5043541;28;20211;-79
2023/04/03 05:02:18;;;;;;;9.17;2.47;;;0.80;99.90;;;;;;5043646;28;20224;-79
2023/04/03 05:04:44;;;;;;;10.73;2.83;;;0.80;99.90;;;;;;5042635;28;20173;-79
2023/04/03 05:07:10;;;;;;;5.13;2.13;;;0.80;99.90;;;;;;5042727;28;20172;-79
2023/04/03 05:09:35;;;;;;;4.27;2.30;;;0.80;99.90;;;;;;5044237;28;20275;-79
2023/04/03 05:12:02;;;;;;;5.37;2.53;;;0.80;99.90;;;;;;5049656;28;20338;-81
2023/04/03 05:14:28;;;;;;;5.03;2.27;;;0.90;99.90;;;;;;5050185;28;20286;-80
2023/04/03 05:16:53;;;;;;;3.73;2.53;;;0.90;99.90;;;;;;5055973;28;20231;-80
2023/04/03 05:19:20;;;;;;;4.50;1.93;;;0.90;99.90;;;;;;5057359;28;20680;-80
2023/04/03 05:21:45;;;;;;;6.13;2.40;;;0.90;99.90;;;;;;5051564;28;20668;-79
2023/04/03 05:24:11;;;;;;;6.97;1.97;;;0.90;99.90;;;;;;5058544;28;20290;-79
2023/04/03 05:26:36;;;;;;;4.73;2.10;;;0.90;99.90;;;;;;5052680;28;20543;-79
2023/04/03 05:29:03;;;;;;;5.40;1.90;;;0.90;99.90;;;;;;5053714;28;20575;-79
2023/04/03 05:31:29;;;;;;;4.07;2.40;;;1.00;99.90;;;;;;5050965;28;20558;-78
2023/04/03 05:33:55;;;;;;;6.17;2.10;;;1.00;99.90;;;;;;5055796;28;20256;-78
2023/04/03 05:36:21;;;;;;;8.00;2.27;;;1.00;99.90;;;;;;5052086;28;20209;-79
2023/04/03 05:38:46;;;;;;;9.93;2.27;;;1.00;99.90;;;;;;5058336;28;20176;-79
2023/04/03 05:41:13;;;;;;;4.40;2.17;;;1.10;99.90;;;;;;5051178;28;20167;-80
2023/04/03 05:43:38;;;;;;;3.80;1.77;;;1.10;99.90;;;;;;5056483;28;20265;-79
2023/04/03 05:46:08;;;;;;;2.93;1.73;;;1.10;99.90;;;;;;5052778;28;20642;-79
2023/04/03 05:48:34;;;;;;;8.27;2.17;;;1.10;99.90;;;;;;5052912;28;20179;-78
2023/04/03 05:50:59;;;;;;;5.80;1.50;;;1.10;99.90;;;;;;5043877;28;20707;-78
2023/04/03 05:53:29;;;;;;;3.97;2.00;;;1.10;99.90;;;;;;5051889;28;20703;-78
2023/04/03 05:55:54;;;;;;;7.13;2.33;;;1.10;99.90;;;;;;5058271;28;20176;-79
2023/04/03 05:58:20;;;;;;;6.43;1.80;;;1.00;99.90;;;;;;5056280;28;20550;-79
2023/04/03 06:00:46;;;;;;;6.00;2.10;;;1.10;99.90;;;;;;5054357;28;20550;-79
2023/04/03 06:03:11;;;;;;;8.97;2.73;;;1.20;99.90;;;;;;5052877;28;20668;-79
2023/04/03 06:05:37;;;;;;;4.97;1.70;;;1.20;99.90;;;;;;5053954;28;20191;-79
2023/04/03 06:08:03;;;;;;;5.73;1.77;;;1.20;99.90;;;;;;5056642;28;20171;-79
2023/04/03 06:10:29;;;;;;;8.63;2.30;;;1.20;99.90;;;;;;5056310;28;20207;-79
2023/04/03 06:12:55;;;;;;;5.80;2.20;;;1.20;99.90;;;;;;5056964;28;20208;-79
2023/04/03 06:15:21;;;;;;;6.40;2.10;;;1.30;99.90;;;;;;5054024;28;20176;-80
2023/04/03 06:17:46;;;;;;;2.70;1.90;;;1.30;99.90;;;;;;5056418;28;20179;-79
2023/04/03 06:20:13;;;;;;;5.67;1.77;;;1.30;99.90;;;;;;5058252;28;20614;-79
2023/04/03 06:22:38;;;;;;;3.43;1.70;;;1.30;99.90;;;;;;5054181;28;20204;-79
2023/04/03 06:25:04;;;;;;;6.50;2.20;;;1.40;99.90;;;;;;5054982;28;20639;-80
2023/04/03 06:27:30;;;;;;;3.40;1.67;;;1.50;99.90;;;;;;5054673;28;20272;-79
2023/04/03 06:29:56;;;;;;;5.80;1.83;;;1.50;99.90;;;;;;5058891;28;20206;-79
2023/04/03 06:32:21;;;;;;;5.67;2.20;;;1.50;99.90;;;;;;5058605;28;20278;-80
2023/04/03 06:34:47;;;;;;;5.60;2.50;;;1.60;99.90;;;;;;5060236;28;20612;-79
2023/04/03 06:37:16;;;;;;;10.23;2.63;;;1.70;99.90;;;;;;5061483;28;20180;-79
2023/04/03 06:39:41;;;;;;;3.60;1.73;;;1.70;99.90;;;;;;5060196;28;20211;-78
2023/04/03 06:42:07;;;;;;;5.37;2.20;;;1.70;99.90;;;;;;5051753;28;20208;-79
2023/04/03 06:44:34;;;;;;;4.63;2.27;;;1.80;99.90;;;;;;5057248;28;20229;-79
2023/04/03 06:47:00;;;;;;;4.30;2.00;;;1.80;99.90;;;;;;5063734;28;20155;-78
2023/04/03 06:49:26;;;;;;;2.60;1.70;;;1.90;99.90;;;;;;5043888;28;20211;-78
2023/04/03 06:51:51;;;;;;;7.17;1.97;;;1.90;99.90;;;;;;5046484;28;20216;-78
2023/04/03 06:54:18;;;;;;;5.73;2.40;;;2.00;99.90;;;;;;5056751;28;20179;-79
2023/04/03 06:56:43;;;;;;;7.50;2.43;;;2.00;99.90;;;;;;5047034;28;20179;-78
2023/04/03 06:59:10;;;;;;;5.33;2.00;;;2.10;99.90;;;;;;5040396;28;20711;-77
2023/04/03 07:01:35;;;;;;;5.73;2.03;;;2.20;99.90;;;;;;5050642;28;20270;-78
2023/04/03 07:04:01;;;;;;;5.13;2.40;;;2.20;99.90;;;;;;5058808;28;20279;-79
2023/04/03 07:06:26;;;;;;;4.83;2.03;;;2.30;99.90;;;;;;5058576;28;20233;-79
2023/04/03 07:08:53;;;;;;;8.53;2.10;;;2.40;99.90;;;;;;5058423;28;20175;-79
2023/04/03 07:11:20;;;;;;;6.80;1.90;;;2.50;99.90;;;;;;5062070;28;20320;-79
2023/04/03 07:13:45;;;;;;;5.23;2.20;;;2.50;99.90;;;;;;5058721;28;20225;-78
2023/04/03 07:16:11;;;;;;;6.43;2.27;;;2.60;99.90;;;;;;5056738;28;20192;-79
2023/04/03 07:18:37;;;;;;;4.07;1.47;;;2.60;99.90;;;;;;5043387;28;20191;-79
2023/04/03 07:21:03;;;;;;;3.63;1.80;;;2.70;99.90;;;;;;5059881;28;20179;-79
2023/04/03 07:23:29;;;;;;;3.10;1.67;;;2.80;99.90;;;;;;5060101;28;20210;-78
2023/04/03 07:25:55;;;;;;;2.70;1.90;;;2.80;99.90;;;;;;5062163;28;20171;-79
2023/04/03 07:28:25;;;;;;;3.23;1.90;;;2.90;99.90;;;;;;5058987;28;20191;-79
2023/04/03 07:31:03;;;;;;;4.20;1.93;;;2.90;99.90;;;;;;5060390;28;20180;-79
2023/04/03 07:33:29;;;;;;;4.57;1.77;;;3.00;99.90;;;;;;5060429;28;20217;-80
2023/04/03 07:35:55;;;;;;;3.87;1.97;;;3.10;99.90;;;;;;5060009;28;20619;-79
2023/04/03 07:38:20;;;;;;;4.60;1.80;;;3.10;99.90;;;;;;5061428;28;20328;-80
2023/04/03 07:40:48;;;;;;;5.70;1.70;;;3.20;99.90;;;;;;5061055;28;20203;-78
2023/04/03 07:43:15;;;;;;;4.33;1.73;;;3.20;99.90;;;;;;5061872;28;20618;-79
2023/04/03 07:45:40;;;;;;;3.93;1.53;;;3.30;99.90;;;;;;5061795;28;20658;-78
2023/04/03 07:48:06;;;;;;;4.00;1.77;;;3.30;99.90;;;;;;5061845;28;20197;-79
2023/04/03 07:50:32;;;;;;;3.97;1.80;;;3.40;99.90;;;;;;5059834;28;20528;-79
2023/04/03 07:52:58;;;;;;;5.33;1.70;;;3.50;99.90;;;;;;5060401;28;20234;-79
2023/04/03 07:55:25;;;;;;;4.70;1.60;;;3.50;99.90;;;;;;5060232;28;20214;-79
2023/04/03 07:57:51;;;;;;;6.97;1.83;;;3.60;99.90;;;;;;5061403;28;20237;-79
2023/04/03 08:00:17;;;;;;;1.87;1.50;;;3.60;99.90;;;;;;5061217;28;20203;-78
2023/04/03 08:02:44;;;;;;;6.87;1.80;;;3.70;99.90;;;;;;5060235;28;20624;-79
2023/04/03 08:05:11;;;;;;;3.17;1.37;;;3.80;99.90;;;;;;5061053;28;20187;-79
2023/04/03 08:07:37;;;;;;;4.07;1.60;;;3.80;99.90;;;;;;5061668;28;20202;-79
2023/04/03 08:10:03;;;;;;;4.30;1.90;;;3.90;99.90;;;;;;5060421;28;20184;-79
2023/04/03 08:12:29;;;;;;;4.33;1.67;;;3.90;99.90;;;;;;5060395;28;20215;-78
2023/04/03 08:14:55;;;;;;;3.63;1.27;;;4.00;99.90;;;;;;5060728;28;20168;-78
2023/04/03 08:17:21;;;;;;;3.87;1.63;;;4.00;99.90;;;;;;5062338;28;20172;-78
2023/04/03 08:19:46;;;;;;;2.30;1.37;;;4.10;99.90;;;;;;5061365;28;20201;-79
2023/04/03 08:22:12;;;;;;;4.17;1.53;;;4.10;99.90;;;;;;5060447;28;20219;-79
2023/04/03 08:24:38;;;;;;;3.87;1.30;;;4.20;99.90;;;;;;5061087;28;20544;-78
2023/04/03 08:27:03;;;;;;;9.97;1.80;;;4.20;99.90;;;;;;5065966;28;20179;-79
2023/04/03 08:29:29;;;;;;;3.70;1.20;;;4.30;99.90;;;;;;5069046;28;20666;-79
2023/04/03 08:31:55;;;;;;;3.00;1.50;;;4.40;99.90;;;;;;5067735;28;20261;-79
2023/04/03 08:34:21;;;;;;;1.80;1.13;;;4.50;99.90;;;;;;5071154;28;20167;-79
2023/04/03 08:36:46;;;;;;;2.53;1.20;;;4.60;99.90;;;;;;5079921;28;20692;-81
2023/04/03 08:39:12;;;;;;;2.40;0.93;;;4.60;99.90;;;;;;5079616;28;20206;-80
2023/04/03 08:41:42;;;;;;;2.50;1.10;;;4.70;99.90;;;;;;5066166;28;20180;-79
2023/04/03 08:44:13;;;;;;;2.30;1.20;;;4.70;97.90;;;;;;5064784;28;20176;-79
2023/04/03 08:46:58;;;;;;;3.90;1.23;;;4.80;99.90;;;;;;5066274;28;20161;-79
2023/04/03 08:49:28;;;;;;;6.07;1.47;;;4.90;95.20;;;;;;5065010;28;20640;-81
2023/04/03 08:51:56;;;;;;;3.73;1.27;;;4.90;99.90;;;;;;5065441;28;20222;-80
2023/04/03 08:54:47;;;;;;;3.77;1.27;;;5.00;74.20;;;;;;5066816;28;20225;-79
2023/04/03 08:57:13;;;;;;;2.63;1.20;;;5.00;54.20;;;;;;5067418;28;20175;-80
2023/04/03 08:59:40;;;;;;;3.40;1.20;;;5.00;60.80;;;;;;5066245;28;20208;-79
2023/04/03 09:02:27;;;;;;;1.47;0.80;;;5.10;64.50;;;;;;5069359;28;20302;-79
2023/04/03 09:04:53;;;;;;;2.17;1.00;;;5.20;97.90;;;;;;5067434;28;20194;-80
2023/04/03 09:07:42;;;;;;;2.80;1.13;;;5.20;67.50;;;;;;5064757;28;20172;-80
2023/04/03 09:10:12;;;;;;;3.27;0.80;;;5.30;51.60;;;;;;5062777;28;20217;-78
2023/04/03 09:12:44;;;;;;;2.50;1.00;;;5.40;35.40;;;;;;5063862;28;20237;-79
2023/04/03 09:15:12;;;;;;;3.33;1.00;;;5.40;1.00;;;;;;5064688;28;20187;-79
2023/04/03 09:17:44;;;;;;;4.03;1.30;;;5.50;1.00;;;;;;5065437;28;20194;-79
2023/04/03 09:20:41;;;;;;;2.67;0.83;;;5.50;1.00;;;;;;5064758;28;20203;-79
2023/04/03 09:23:28;;;;;;;3.47;0.87;;;5.60;1.00;;;;;;5065020;28;20625;-81
2023/04/03 09:26:04;;;;;;;2.87;0.73;;;5.60;1.00;;;;;;5064426;28;20223;-78
2023/04/03 09:28:35;;;;;;;2.03;0.90;;;5.60;1.00;;;;;;5063646;28;20529;-81
2023/04/03 09:31:01;;;;;;;2.60;0.87;;;5.80;1.00;;;;;;5065614;28;20194;-80
2023/04/03 09:33:30;;;;;;;1.73;0.70;;;5.80;1.00;;;;;;5063215;28;20728;-80
2023/04/03 09:35:55;;;;;;;2.80;0.80;;;5.90;1.00;;;;;;5065068;28;20176;-79
2023/04/03 09:38:22;;;;;;;6.20;0.97;;;5.90;1.00;;;;;;5063227;28;20175;-80
2023/04/03 09:41:06;;;;;;;1.23;0.80;;;5.90;1.00;;;;;;5064994;28;20208;-81
2023/04/03 09:43:34;;;;;;;6.33;1.33;;;6.00;1.00;;;;;;5065548;28;20207;-81
2023/04/03 09:46:24;;;;;;;4.90;0.80;;;6.00;1.00;;;;;;5063923;28;20207;-80
2023/04/03 09:49:01;;;;;;;2.00;1.00;;;6.10;1.00;;;;;;5068365;28;20243;-80
2023/04/03 09:51:28;;;;;;;1.27;0.90;;;6.10;1.00;;;;;;5066121;28;20159;-81
2023/04/03 09:53:55;;;;;;;2.13;0.80;;;6.10;1.00;;;;;;5064136;28;20538;-80
2023/04/03 09:56:22;;;;;;;2.53;1.00;;;6.10;1.00;;;;;;5062206;28;20229;-80
2023/04/03 09:58:51;;;;;;;0.70;0.50;;;6.30;1.00;;;;;;5059240;28;20278;-80
2023/04/03 10:01:30;;;;;;;1.77;0.90;;;6.30;1.00;;;;;;5062641;28;20186;-80
2023/04/03 10:04:17;;;;;;;3.30;0.90;;;6.50;1.00;;;;;;5059557;28;20178;-80
2023/04/03 10:06:47;;;;;;;3.70;0.80;;;6.50;1.00;;;;;;5060723;28;20183;-80
2023/04/03 10:09:30;;;;;;;2.20;0.70;;;6.60;1.00;;;;;;5060369;28;20171;-80
2023/04/03 10:12:12;;;;;;;0.80;0.63;;;6.70;1.00;;;;;;5060761;28;20241;-81
2023/04/03 10:14:59;;;;;;;1.83;0.87;;;6.70;1.00;;;;;;5060470;28;20194;-80
2023/04/03 10:17:43;;;;;;;0.90;0.60;;;6.80;99.90;;;;;;5062359;28;20171;-79
2023/04/03 10:20:43;;;;;;;2.03;0.80;;;6.80;1.00;;;;;;5060999;28;20308;-81
2023/04/03 10:23:31;;;;;;;2.47;0.63;;;6.80;1.00;;;;;;5061447;28;20191;-80
2023/04/03 10:26:35;;;;;;;3.77;1.13;;;6.80;1.00;;;;;;5061478;28;20607;-80
2023/04/03 10:29:21;;;;;;;3.90;1.20;;;6.90;1.00;;;;;;5061482;28;20202;-80
2023/04/03 10:32:09;;;;;;;2.17;0.93;;;6.90;99.90;;;;;;5061389;28;20199;-80
2023/04/03 10:34:42;;;;;;;2.80;1.13;;;6.90;1.00;;;;;;5060274;28;20176;-81
2023/04/03 10:37:20;;;;;;;3.10;0.90;;;7.00;1.00;;;;;;5061626;28;20171;-81
2023/04/03 10:40:18;;;;;;;4.47;1.00;;;7.00;1.00;;;;;;5062004;28;20184;-80
2023/04/03 10:42:57;;;;;;;2.10;1.03;;;7.10;1.00;;;;;;5057739;28;20544;-80
2023/04/03 10:45:49;;;;;;;2.10;1.00;;;7.10;1.00;;;;;;5057883;28;20214;-80
2023/04/03 10:48:40;;;;;;;2.87;0.97;;;7.10;1.00;;;;;;5056781;28;20542;-79
2023/04/03 10:51:08;;;;;;;4.57;1.20;;;7.20;1.00;;;;;;5057754;28;20176;-79
2023/04/03 10:54:06;;;;;;;2.80;0.90;;;7.20;1.00;;;;;;5059267;28;20242;-79
2023/04/03 10:56:40;;;;;;;1.73;1.10;;;7.20;1.00;;;;;;5057131;28;20558;-79
2023/04/03 10:59:28;;;;;;;4.23;1.00;;;7.30;1.00;;;;;;5057117;28;20199;-80
2023/04/03 11:02:01;;;;;;;2.77;1.00;;;7.40;1.00;;;;;;5056961;28;20196;-79
2023/04/03 11:04:31;;;;;;;2.07;1.17;;;7.50;1.00;;;;;;5060901;28;20191;-78
2023/04/03 11:07:07;;;;;;;1.80;0.73;;;7.50;1.00;;;;;;5053522;28;20482;-77
2023/04/03 11:09:41;;;;;;;1.73;1.10;;;7.60;1.00;;;;;;5051943;28;20175;-77
2023/04/03 11:12:31;;;;;;;1.20;0.90;;;7.70;1.00;;;;;;5053342;28;20209;-77
2023/04/03 11:14:57;;;;;;;1.87;0.77;;;7.60;1.00;;;;;;5049888;28;20191;-78
2023/04/03 11:17:33;;;;;;;1.97;1.03;;;7.70;1.00;;;;;;5051794;28;20172;-78
2023/04/03 11:20:27;;;;;;;1.20;0.90;;;7.80;1.00;;;;;;5053299;28;20262;-77
2023/04/03 11:23:21;;;;;;;3.50;1.20;;;7.80;1.00;;;;;;5051645;28;20571;-76
2023/04/03 11:25:52;;;;;;;3.40;1.00;;;7.80;1.00;;;;;;5052889;28;20251;-77
2023/04/03 11:28:17;;;;;;;3.30;1.30;;;7.80;1.00;;;;;;5053103;28;20217;-77
2023/04/03 11:30:55;;;;;;;2.47;0.93;;;7.80;1.00;;;;;;5051686;28;20179;-78
2023/04/03 11:33:21;;;;;;;2.50;0.90;;;7.90;99.90;;;;;;5051490;28;20261;-77
2023/04/03 11:35:51;;;;;;;1.97;0.90;;;7.90;1.00;;;;;;5053061;28;20675;-77
2023/04/03 11:38:34;;;;;;;2.07;1.10;;;7.90;1.00;;;;;;5052477;28;20172;-76
2023/04/03 11:41:01;;;;;;;3.60;1.10;;;8.00;1.00;;;;;;5052393;28;20183;-77
2023/04/03 11:43:30;;;;;;;2.27;1.40;;;8.00;1.00;;;;;;5052290;28;20183;-77
2023/04/03 11:45:59;;;;;;;2.17;1.00;;;8.10;1.00;;;;;;5052444;28;20248;-76
2023/04/03 11:48:28;;;;;;;2.13;1.10;;;8.10;1.00;;;;;;5051526;28;20239;-77
2023/04/03 11:50:55;;;;;;;3.97;1.10;;;8.20;1.00;;;;;;5050974;28;20655;-77
2023/04/03 11:53:31;;;;;;;2.17;0.80;;;8.20;1.00;;;;;;5052202;28;20223;-76
2023/04/03 11:56:25;;;;;;;3.43;1.33;;;8.20;1.00;;;;;;5050948;28;20171;-76
2023/04/03 11:59:13;;;;;;;2.63;1.13;;;8.20;99.90;;;;;;5052327;28;20176;-76
2023/04/03 12:01:48;;;;;;;2.30;1.10;;;8.30;1.00;;;;;;5052045;28;20265;-77
2023/04/03 12:04:16;;;;;;;2.50;0.90;;;8.20;99.90;;;;;;5056553;28;20534;-77
2023/04/03 12:06:51;;;;;;;2.37;0.80;;;8.20;1.00;;;;;;5056338;28;20170;-76
2023/04/03 12:09:55;;;;;;;2.77;1.10;;;8.30;1.00;;;;;;5054986;28;20163;-77
2023/04/03 12:12:39;;;;;;;3.20;1.20;;;8.50;1.00;;;;;;5054619;28;20589;-77
2023/04/03 12:15:23;;;;;;;3.40;1.13;;;8.40;1.00;;;;;;5054924;28;20175;-77
2023/04/03 12:17:51;;;;;;;1.40;0.90;;;8.40;99.90;;;;;;5056504;28;20160;-76
2023/04/03 12:20:51;;;;;;;4.47;1.00;;;8.50;99.90;;;;;;5056067;28;20195;-77
2023/04/03 12:23:32;;;;;;;4.00;1.07;;;8.40;99.90;;;;;;5055897;28;20196;-77
2023/04/03 12:26:19;;;;;;;1.70;0.90;;;8.40;99.90;;;;;;5055970;28;20648;-77
2023/04/03 12:28:46;;;;;;;1.87;0.87;;;8.50;99.90;;;;;;5054580;28;20179;-77
2023/04/03 12:31:12;;;;;;;1.07;0.90;;;8.50;99.90;;;;;;5054580;28;20179;-77
2023/04/03 12:33:47;;;;;;;1.63;0.83;;;8.60;1.00;;;;;;5055894;28;20245;-77
2023/04/03 12:36:30;;;;;;;1.97;1.00;;;8.60;99.90;;;;;;5054511;28;20178;-78
2023/04/03 12:38:56;;;;;;;1.73;0.80;;;8.60;1.00;;;;;;5054625;28;20549;-77
2023/04/03 12:41:50;;;;;;;2.13;0.90;;;8.60;1.00;;;;;;5054285;28;20168;-78
2023/04/03 12:44:38;;;;;;;1.93;1.00;;;8.80;99.90;;;;;;5055680;28;20155;-77
2023/04/03 12:47:23;;;;;;;2.07;0.90;;;8.70;99.90;;;;;;5054263;28;20177;-77
2023/04/03 12:49:50;;;;;;;3.07;0.90;;;8.70;99.90;;;;;;5055795;28;20171;-78
2023/04/03 12:52:41;;;;;;;1.80;1.10;;;8.70;99.90;;;;;;5054064;28;20195;-77
2023/04/03 12:55:19;;;;;;;2.73;0.83;;;8.60;57.40;;;;;;5054097;28;20247;-77
2023/04/03 12:57:45;;;;;;;5.53;1.27;;;8.70;1.00;;;;;;5055435;28;20195;-77
2023/04/03 13:00:32;;;;;;;1.57;0.97;;;8.70;1.00;;;;;;5053910;28;20729;-77
2023/04/03 13:02:58;;;;;;;1.73;1.13;;;8.60;1.00;;;;;;5055353;28;20191;-76
2023/04/03 13:05:24;;;;;;;1.37;0.80;;;8.70;1.00;;;;;;5053910;28;20176;-77
2023/04/03 13:07:57;;;;;;;2.67;0.90;;;8.80;1.00;;;;;;5055343;28;20168;-77
2023/04/03 13:10:23;;;;;;;2.60;0.90;;;8.80;1.00;;;;;;5055574;28;20160;-77
2023/04/03 13:12:52;;;;;;;3.67;1.10;;;8.80;1.00;;;;;;5054713;28;20300;-77
2023/04/03 13:15:30;;;;;;;2.37;0.90;;;8.90;99.90;;;;;;5053717;28;20245;-77